Time;durP1;ratioP1;P1;durP2;ratioP2;P2;SDS_P1;SDS_P2;PMS_P1;PMS_P2;Temp;Humidity;BMP_temperature;BMP_pressure;BME280_temperature;BME280_humidity;BME280_pressure;Samples;Min_cycle;Max_cycle;Signal;HPM_P1;HPM_P2
2022/10/07 00:00:50;;;;;;;2.97;1.33;;;11.30;99.90;;;;;;4992853;28;20210;-62
2022/10/07 00:03:17;;;;;;;4.47;1.75;;;11.30;99.90;;;;;;5011146;28;20586;-62
2022/10/07 00:05:44;;;;;;;4.65;1.70;;;11.30;99.90;;;;;;4999204;28;20210;-63
2022/10/07 00:08:11;;;;;;;5.38;1.75;;;11.30;99.90;;;;;;5019080;28;20198;-62
2022/10/07 00:10:39;;;;;;;5.07;1.90;;;11.20;99.90;;;;;;4996294;28;20210;-62
2022/10/07 00:13:06;;;;;;;1.75;1.30;;;11.40;99.90;;;;;;5020875;28;20205;-63
2022/10/07 00:15:34;;;;;;;2.65;1.58;;;11.20;99.90;;;;;;5014866;28;20194;-62
2022/10/07 00:18:02;;;;;;;7.75;1.88;;;10.00;99.90;;;;;;4993733;28;20653;-63
2022/10/07 00:20:29;;;;;;;3.97;2.05;;;11.10;99.90;;;;;;5019355;28;20197;-63
2022/10/07 00:22:55;;;;;;;5.55;1.90;;;11.10;99.90;;;;;;5001442;28;20209;-62
2022/10/07 00:25:22;;;;;;;5.15;1.90;;;11.00;99.90;;;;;;5010647;28;20209;-62
2022/10/07 00:27:50;;;;;;;6.20;2.25;;;11.10;99.90;;;;;;5020118;28;20209;-62
2022/10/07 00:30:17;;;;;;;2.25;1.85;;;11.10;99.90;;;;;;5026662;28;20695;-62
2022/10/07 00:32:44;;;;;;;5.78;1.85;;;11.00;99.90;;;;;;4982405;28;20280;-62
2022/10/07 00:35:12;;;;;;;2.80;1.77;;;11.00;99.90;;;;;;4999477;28;20213;-62
2022/10/07 00:37:41;;;;;;;8.32;2.38;;;12.00;99.90;;;;;;5004173;28;20269;-62
2022/10/07 00:40:11;;;;;;;5.20;2.17;;;11.00;99.90;;;;;;5005781;28;20201;-62
2022/10/07 00:42:39;;;;;;;4.65;2.35;;;11.00;99.90;;;;;;5011828;28;20279;-62
2022/10/07 00:45:09;;;;;;;6.50;2.25;;;10.90;99.90;;;;;;5018919;28;20202;-62
2022/10/07 00:47:36;;;;;;;7.07;2.50;;;9.40;99.90;;;;;;4997775;28;20221;-62
2022/10/07 00:50:07;;;;;;;4.85;2.35;;;10.90;99.90;;;;;;5008885;28;20675;-63
2022/10/07 00:52:38;;;;;;;9.32;1.92;;;10.90;99.90;;;;;;4999327;28;20226;-62
2022/10/07 00:55:10;;;;;;;4.80;2.50;;;10.90;99.90;;;;;;5007474;28;20202;-62
2022/10/07 00:57:37;;;;;;;7.68;2.47;;;10.90;99.90;;;;;;5007359;28;20232;-62
2022/10/07 01:00:06;;;;;;;7.38;2.22;;;10.90;99.90;;;;;;5017312;28;20202;-62
2022/10/07 01:02:34;;;;;;;6.25;2.10;;;10.90;99.90;;;;;;4992432;28;20225;-62
2022/10/07 01:05:04;;;;;;;4.90;2.47;;;11.00;99.90;;;;;;5006905;28;20202;-63
2022/10/07 01:07:31;;;;;;;6.43;3.38;;;10.90;99.90;;;;;;5005894;28;20202;-62
2022/10/07 01:10:01;;;;;;;6.25;2.50;;;10.80;99.90;;;;;;5020242;28;20197;-62
2022/10/07 01:12:38;;;;;;;10.15;2.70;;;11.00;99.90;;;;;;5013564;28;20198;-62
2022/10/07 01:15:11;;;;;;;7.97;2.75;;;10.80;99.90;;;;;;5023633;28;20216;-62
2022/10/07 01:17:44;;;;;;;5.32;2.55;;;10.80;99.90;;;;;;5003143;28;20230;-62
2022/10/07 01:20:22;;;;;;;5.28;2.40;;;10.80;99.90;;;;;;5008997;28;20202;-62
2022/10/07 01:23:04;;;;;;;7.20;2.67;;;10.80;99.90;;;;;;4995916;28;20213;-62
2022/10/07 01:25:47;;;;;;;5.75;2.63;;;10.70;99.90;;;;;;5021290;28;20209;-62
2022/10/07 01:28:19;;;;;;;13.43;3.00;;;10.70;99.90;;;;;;5014983;28;20229;-62
2022/10/07 01:30:52;;;;;;;6.65;3.22;;;10.70;99.90;;;;;;5016943;28;20197;-62
2022/10/07 01:33:26;;;;;;;6.88;3.10;;;10.60;99.90;;;;;;5017513;28;20236;-62
2022/10/07 01:35:56;;;;;;;5.00;2.80;;;10.60;99.90;;;;;;4984001;28;20205;-61
2022/10/07 01:38:26;;;;;;;6.85;3.10;;;10.50;99.90;;;;;;5001324;28;20738;-62
2022/10/07 01:40:57;;;;;;;4.68;2.95;;;10.50;99.90;;;;;;5005940;28;20873;-62
2022/10/07 01:43:25;;;;;;;3.33;2.72;;;10.60;99.90;;;;;;5012755;28;20231;-61
2022/10/07 01:45:55;;;;;;;7.97;3.38;;;10.70;99.90;;;;;;5024233;28;20204;-61
2022/10/07 01:48:21;;;;;;;6.43;3.97;;;10.70;99.90;;;;;;5025524;28;20578;-62
2022/10/07 01:50:50;;;;;;;6.35;3.17;;;10.60;99.90;;;;;;4979941;28;20690;-62
2022/10/07 01:53:30;;;;;;;6.38;3.42;;;10.70;99.90;;;;;;5025261;28;20217;-61
2022/10/07 01:56:06;;;;;;;8.05;3.78;;;10.60;99.90;;;;;;5002673;28;20212;-62
2022/10/07 01:58:49;;;;;;;8.50;3.50;;;10.60;99.90;;;;;;5002731;28;20229;-62
2022/10/07 02:01:22;;;;;;;6.38;3.00;;;10.60;99.90;;;;;;5022580;28;20202;-61
2022/10/07 02:04:03;;;;;;;6.00;3.22;;;10.70;99.90;;;;;;5013154;28;20259;-61
2022/10/07 02:06:39;;;;;;;5.97;3.08;;;10.70;99.90;;;;;;4984184;28;20292;-62
2022/10/07 02:09:18;;;;;;;6.93;3.30;;;10.60;99.90;;;;;;5026604;28;20251;-62
2022/10/07 02:11:49;;;;;;;9.57;3.00;;;10.60;99.90;;;;;;5003935;28;20201;-62
2022/10/07 02:14:20;;;;;;;6.03;2.90;;;10.60;99.90;;;;;;5003327;28;20213;-62
2022/10/07 02:16:49;;;;;;;3.33;2.78;;;10.60;99.90;;;;;;5024369;28;21090;-62
2022/10/07 02:19:20;;;;;;;8.25;3.20;;;10.50;99.90;;;;;;5018648;28;20669;-61
2022/10/07 02:21:51;;;;;;;3.35;2.90;;;10.50;99.90;;;;;;4982802;28;20216;-62
2022/10/07 02:24:20;;;;;;;7.88;2.78;;;10.40;99.90;;;;;;5027122;28;20674;-62
2022/10/07 02:26:49;;;;;;;8.88;3.22;;;10.40;99.90;;;;;;5002953;28;20201;-61
2022/10/07 02:29:21;;;;;;;6.22;2.58;;;10.40;99.90;;;;;;5018906;28;20213;-61
2022/10/07 02:31:49;;;;;;;10.25;3.15;;;10.40;99.90;;;;;;5009691;28;20823;-61
2022/10/07 02:34:20;;;;;;;8.73;3.65;;;10.30;99.90;;;;;;5015503;28;20210;-62
2022/10/07 02:36:51;;;;;;;5.55;3.10;;;10.40;99.90;;;;;;4993259;28;20305;-61
2022/10/07 02:39:18;;;;;;;5.07;2.90;;;10.40;99.90;;;;;;5013749;28;20271;-62
2022/10/07 02:41:50;;;;;;;7.43;3.42;;;10.40;99.90;;;;;;5011828;28;20193;-62
2022/10/07 02:44:24;;;;;;;7.82;2.70;;;10.30;99.90;;;;;;5009964;28;20217;-61
2022/10/07 02:46:56;;;;;;;8.18;3.03;;;10.40;99.90;;;;;;5010379;28;20205;-62
2022/10/07 02:49:25;;;;;;;3.13;2.45;;;10.40;99.90;;;;;;5016499;28;20202;-62
2022/10/07 02:51:57;;;;;;;7.13;2.75;;;10.40;99.90;;;;;;4990675;28;20312;-62
2022/10/07 02:54:30;;;;;;;5.20;2.55;;;10.40;99.90;;;;;;5013373;28;20205;-62
2022/10/07 02:56:59;;;;;;;6.53;2.80;;;10.40;99.90;;;;;;5012930;28;20206;-62
2022/10/07 02:59:30;;;;;;;5.03;2.95;;;10.40;99.90;;;;;;5004374;28;21047;-62
2022/10/07 03:02:01;;;;;;;4.88;2.78;;;10.30;99.90;;;;;;5020048;28;20197;-62
2022/10/07 03:04:28;;;;;;;4.55;2.40;;;10.30;99.90;;;;;;5021386;28;20296;-62
2022/10/07 03:06:57;;;;;;;8.88;2.47;;;10.30;99.90;;;;;;4988772;28;20205;-62
2022/10/07 03:09:24;;;;;;;6.95;2.42;;;10.30;99.90;;;;;;5005186;28;20289;-61
2022/10/07 03:11:51;;;;;;;7.43;2.50;;;10.30;99.90;;;;;;5019737;28;20197;-62
2022/10/07 03:14:18;;;;;;;5.00;2.70;;;10.30;99.90;;;;;;5002697;28;20485;-61
2022/10/07 03:16:46;;;;;;;3.25;2.25;;;10.30;99.90;;;;;;5015103;28;20682;-62
2022/10/07 03:19:13;;;;;;;4.55;2.40;;;10.30;99.90;;;;;;5019078;28;20248;-62
2022/10/07 03:21:40;;;;;;;7.65;2.50;;;10.30;99.90;;;;;;4999097;28;20773;-61
2022/10/07 03:24:06;;;;;;;2.95;2.10;;;10.30;99.90;;;;;;4993195;28;20694;-62
2022/10/07 03:26:34;;;;;;;4.03;1.98;;;10.30;99.90;;;;;;5017162;28;20750;-62
2022/10/07 03:29:01;;;;;;;5.35;2.78;;;10.30;99.90;;;;;;4994941;28;20205;-63
2022/10/07 03:31:28;;;;;;;8.77;2.80;;;10.30;99.90;;;;;;4997371;28;20208;-62
2022/10/07 03:33:58;;;;;;;8.48;2.20;;;10.20;99.90;;;;;;5019340;28;20236;-62
2022/10/07 03:36:25;;;;;;;6.80;2.28;;;10.20;99.90;;;;;;4985621;28;21050;-63
2022/10/07 03:38:52;;;;;;;5.57;2.30;;;10.20;99.90;;;;;;5017153;28;21466;-62
2022/10/07 03:41:19;;;;;;;3.25;1.88;;;10.20;99.90;;;;;;5011058;28;20269;-62
2022/10/07 03:43:46;;;;;;;5.13;1.90;;;10.30;99.90;;;;;;5020203;28;20194;-62
2022/10/07 03:46:13;;;;;;;4.30;1.95;;;10.10;99.90;;;;;;4972059;28;20228;-62
2022/10/07 03:48:40;;;;;;;5.90;2.05;;;10.10;99.90;;;;;;5015124;28;20210;-63
2022/10/07 03:51:08;;;;;;;2.95;1.73;;;10.10;99.90;;;;;;4983274;28;20217;-62
2022/10/07 03:53:37;;;;;;;6.60;2.45;;;10.00;99.90;;;;;;4985249;28;20278;-62
2022/10/07 03:56:05;;;;;;;6.32;2.00;;;;;;;;;;4986161;28;20253;-62
2022/10/07 03:58:31;;;;;;;8.68;2.13;;;10.00;99.90;;;;;;5013117;28;20246;-62
2022/10/07 04:01:06;;;;;;;7.50;2.25;;;9.90;99.90;;;;;;4980582;28;20217;-62
2022/10/07 04:03:33;;;;;;;6.95;1.85;;;9.90;99.90;;;;;;5021403;28;20197;-63
2022/10/07 04:06:01;;;;;;;7.05;1.98;;;;;;;;;;4993310;28;20217;-62
2022/10/07 04:08:31;;;;;;;6.47;2.30;;;9.80;99.90;;;;;;4957049;28;20228;-62
2022/10/07 04:10:59;;;;;;;5.63;2.15;;;;;;;;;;4985612;28;20233;-62
2022/10/07 04:13:26;;;;;;;6.60;2.53;;;9.90;99.90;;;;;;5015632;28;20226;-62
2022/10/07 04:15:53;;;;;;;6.65;2.50;;;;;;;;;;5004307;28;20690;-62
2022/10/07 04:18:20;;;;;;;4.95;2.40;;;9.90;99.90;;;;;;5001745;28;20237;-62
2022/10/07 04:20:47;;;;;;;6.07;1.90;;;9.70;99.90;;;;;;5015107;28;20222;-61
2022/10/07 04:23:14;;;;;;;5.95;2.40;;;10.10;99.90;;;;;;5000205;28;21145;-62
2022/10/07 04:25:44;;;;;;;3.50;1.67;;;9.80;99.90;;;;;;4982557;28;20725;-61
2022/10/07 04:28:17;;;;;;;10.93;2.22;;;9.90;99.90;;;;;;5004880;28;20248;-62
2022/10/07 04:30:49;;;;;;;3.15;1.80;;;;;;;;;;5013728;28;20232;-63
2022/10/07 04:33:17;;;;;;;5.93;2.03;;;9.70;99.90;;;;;;5002332;28;20408;-62
2022/10/07 04:35:45;;;;;;;3.95;1.95;;;10.60;99.90;;;;;;5009303;28;20220;-61
2022/10/07 04:38:13;;;;;;;5.28;2.30;;;9.70;99.90;;;;;;5008017;28;20275;-61
2022/10/07 04:40:40;;;;;;;7.85;2.83;;;9.70;99.90;;;;;;4985806;28;20248;-60
2022/10/07 04:43:23;;;;;;;6.18;1.70;;;9.70;99.90;;;;;;4990440;28;20872;-62
2022/10/07 04:45:52;;;;;;;6.15;1.88;;;9.60;99.90;;;;;;4988360;28;20214;-62
2022/10/07 04:48:21;;;;;;;13.43;2.80;;;9.70;99.90;;;;;;4963014;28;20236;-62
2022/10/07 04:50:50;;;;;;;4.55;2.05;;;9.70;99.90;;;;;;5002849;28;20934;-63
2022/10/07 04:53:17;;;;;;;3.40;2.15;;;9.60;99.90;;;;;;5010467;28;21017;-62
2022/10/07 04:55:46;;;;;;;5.70;2.00;;;9.60;99.90;;;;;;4980292;28;20221;-62
2022/10/07 04:58:14;;;;;;;2.08;1.67;;;9.80;99.90;;;;;;4999501;28;20232;-62
2022/10/07 05:00:43;;;;;;;3.78;1.85;;;9.70;99.90;;;;;;4995950;28;20249;-63
2022/10/07 05:03:09;;;;;;;6.32;1.85;;;9.50;99.90;;;;;;4986248;28;20221;-63
2022/10/07 05:05:38;;;;;;;7.72;2.30;;;;;;;;;;5005450;28;20734;-62
2022/10/07 05:08:06;;;;;;;4.40;2.28;;;10.00;99.90;;;;;;5017009;28;21310;-62
2022/10/07 05:10:35;;;;;;;7.50;2.42;;;9.60;99.90;;;;;;4979247;28;21027;-63
2022/10/07 05:13:03;;;;;;;3.92;1.95;;;9.80;99.90;;;;;;5021243;28;20229;-62
2022/10/07 05:15:31;;;;;;;5.07;2.42;;;9.60;99.90;;;;;;5014429;28;20217;-63
2022/10/07 05:17:57;;;;;;;5.78;2.40;;;9.50;99.90;;;;;;5027066;28;20226;-63
2022/10/07 05:20:25;;;;;;;5.57;2.20;;;9.50;99.90;;;;;;4993434;28;20221;-63
2022/10/07 05:22:51;;;;;;;12.70;2.75;;;9.70;99.90;;;;;;5022996;28;20785;-63
2022/10/07 05:25:19;;;;;;;4.93;2.70;;;9.50;99.90;;;;;;5006183;28;20225;-63
2022/10/07 05:27:50;;;;;;;14.20;2.28;;;9.40;99.90;;;;;;4995744;28;20312;-63
2022/10/07 05:30:18;;;;;;;4.03;2.28;;;10.10;99.90;;;;;;5009260;28;20329;-62
2022/10/07 05:32:46;;;;;;;6.25;2.78;;;9.50;99.90;;;;;;5015920;28;20608;-62
2022/10/07 05:35:13;;;;;;;5.78;2.60;;;9.40;99.90;;;;;;4995648;28;20234;-62
2022/10/07 05:37:39;;;;;;;5.82;2.63;;;9.50;99.90;;;;;;5013626;28;20224;-64
2022/10/07 05:40:07;;;;;;;13.32;3.05;;;9.40;99.90;;;;;;5003961;28;20244;-62
2022/10/07 05:42:34;;;;;;;6.32;2.45;;;9.40;99.90;;;;;;4976657;28;20225;-62
2022/10/07 05:45:04;;;;;;;8.25;2.53;;;9.40;99.90;;;;;;5026251;28;20201;-62
2022/10/07 05:47:32;;;;;;;7.78;2.60;;;9.60;99.90;;;;;;5012644;28;20748;-62
2022/10/07 05:50:00;;;;;;;6.35;2.25;;;9.50;99.90;;;;;;5003455;28;20589;-62
2022/10/07 05:52:29;;;;;;;14.05;2.45;;;9.60;99.90;;;;;;5021875;28;20729;-63
2022/10/07 05:54:56;;;;;;;7.25;2.47;;;9.70;99.90;;;;;;5024922;28;20225;-62
2022/10/07 05:57:23;;;;;;;11.05;2.83;;;9.70;99.90;;;;;;4981007;28;20828;-62
2022/10/07 05:59:50;;;;;;;6.45;2.40;;;9.80;99.90;;;;;;5026974;28;20248;-62
2022/10/07 06:02:19;;;;;;;11.23;2.53;;;9.80;99.90;;;;;;5014475;28;20205;-63
2022/10/07 06:04:47;;;;;;;6.93;2.67;;;10.00;99.90;;;;;;5000647;28;20202;-62
2022/10/07 06:07:16;;;;;;;9.57;2.60;;;9.70;99.90;;;;;;5026476;28;20205;-62
2022/10/07 06:15:12;;;;;;;10.82;2.42;;;9.60;99.90;;;;;;5022819;28;20236;-63
2022/10/07 06:17:42;;;;;;;6.97;2.60;;;;;;;;;;5011653;28;20216;-62
2022/10/07 06:20:10;;;;;;;6.63;2.80;;;10.10;99.90;;;;;;4995283;28;20225;-63
2022/10/07 06:22:38;;;;;;;6.90;2.80;;;10.10;99.90;;;;;;5000598;28;20693;-62
2022/10/07 06:25:06;;;;;;;10.05;3.03;;;10.00;99.90;;;;;;5010763;28;20228;-62
2022/10/07 06:27:34;;;;;;;4.95;2.95;;;10.20;99.90;;;;;;4982281;28;20885;-62
2022/10/07 06:30:02;;;;;;;6.15;2.85;;;10.20;99.90;;;;;;5025120;28;20875;-63
2022/10/07 06:32:29;;;;;;;8.30;2.90;;;10.20;99.90;;;;;;5015915;28;20237;-63
2022/10/07 06:34:56;;;;;;;5.07;2.70;;;10.20;99.90;;;;;;5013283;28;20299;-63
2022/10/07 06:37:23;;;;;;;8.98;3.33;;;10.30;99.90;;;;;;4998064;28;20209;-61
2022/10/07 06:39:51;;;;;;;10.43;3.13;;;10.30;99.90;;;;;;5023453;28;20225;-62
2022/10/07 06:42:18;;;;;;;5.70;2.72;;;10.30;99.90;;;;;;5010642;28;20206;-62
2022/10/07 06:44:44;;;;;;;9.18;3.58;;;10.30;99.90;;;;;;4994849;28;20256;-63
2022/10/07 06:47:11;;;;;;;9.00;3.20;;;10.40;99.90;;;;;;5027096;28;20197;-63
2022/10/07 06:49:38;;;;;;;7.03;3.25;;;10.40;99.90;;;;;;5017621;28;20209;-62
2022/10/07 06:52:05;;;;;;;8.25;3.13;;;10.50;99.90;;;;;;5010178;28;20234;-62
2022/10/07 06:54:33;;;;;;;12.02;3.15;;;10.50;99.90;;;;;;5022824;28;20209;-63
2022/10/07 06:57:01;;;;;;;11.30;3.33;;;;;;;;;;5009006;28;20305;-63
2022/10/07 06:59:28;;;;;;;7.85;3.03;;;10.80;99.90;;;;;;4991583;28;20234;-63
2022/10/07 07:01:55;;;;;;;5.55;3.42;;;10.60;99.90;;;;;;5004301;28;20699;-62
2022/10/07 07:04:23;;;;;;;5.85;3.03;;;10.60;99.90;;;;;;5011691;28;20224;-62
2022/10/07 07:06:50;;;;;;;8.80;3.33;;;10.90;99.90;;;;;;5008693;28;21313;-63
2022/10/07 07:09:17;;;;;;;9.07;3.08;;;10.80;99.90;;;;;;5002204;28;20319;-62
2022/10/07 07:11:44;;;;;;;4.80;2.92;;;10.80;99.90;;;;;;5009535;28;20724;-62
2022/10/07 07:14:13;;;;;;;9.65;2.80;;;;;;;;;;5003325;28;20204;-62
2022/10/07 07:16:41;;;;;;;8.77;2.90;;;10.80;99.90;;;;;;5011664;28;20201;-62
2022/10/07 07:19:10;;;;;;;7.18;2.70;;;10.90;99.90;;;;;;5008615;28;20233;-61
2022/10/07 07:21:39;;;;;;;9.50;3.40;;;10.50;99.90;;;;;;5009217;28;21877;-62
2022/10/07 07:24:07;;;;;;;9.32;3.17;;;10.80;99.90;;;;;;4995013;28;20232;-63
2022/10/07 07:26:36;;;;;;;3.83;2.70;;;11.00;99.90;;;;;;5024012;28;21290;-62
2022/10/07 07:29:05;;;;;;;7.75;3.33;;;11.10;99.90;;;;;;5013767;28;20363;-62
2022/10/07 07:31:36;;;;;;;9.80;3.33;;;11.10;99.90;;;;;;4990954;28;20826;-63
2022/10/07 07:34:06;;;;;;;12.52;3.10;;;11.10;99.90;;;;;;5007671;28;20233;-62
2022/10/07 07:36:35;;;;;;;15.20;3.78;;;11.10;99.90;;;;;;5008072;28;20205;-63
2022/10/07 07:39:03;;;;;;;10.85;3.40;;;11.10;99.90;;;;;;4995778;28;20256;-62
2022/10/07 07:41:32;;;;;;;9.05;3.10;;;11.10;99.90;;;;;;5006509;28;20225;-62
2022/10/07 07:44:01;;;;;;;9.88;3.40;;;11.20;99.90;;;;;;5010447;28;20221;-62
2022/10/07 07:46:32;;;;;;;8.02;3.20;;;11.30;99.90;;;;;;4992843;28;20225;-62
2022/10/07 07:49:00;;;;;;;11.48;3.40;;;11.10;99.90;;;;;;5015607;28;21253;-62
2022/10/07 07:51:27;;;;;;;9.38;3.08;;;;;;;;;;4996508;28;20734;-62
2022/10/07 07:53:54;;;;;;;7.00;2.78;;;11.40;99.90;;;;;;4995425;28;20224;-62
2022/10/07 07:56:21;;;;;;;8.50;2.53;;;11.40;99.90;;;;;;5003519;28;20217;-63
2022/10/07 07:58:48;;;;;;;9.25;3.03;;;11.50;99.90;;;;;;5006556;28;20699;-63
2022/10/07 08:01:17;;;;;;;11.20;3.00;;;11.50;99.90;;;;;;4996531;28;20209;-62
2022/10/07 08:03:46;;;;;;;8.45;2.47;;;11.60;99.90;;;;;;5017382;28;20766;-62
2022/10/07 08:06:17;;;;;;;11.50;2.92;;;11.60;99.90;;;;;;5001528;28;20233;-63
2022/10/07 08:08:44;;;;;;;14.30;3.00;;;11.60;99.90;;;;;;5017444;28;20194;-63
2022/10/07 08:11:13;;;;;;;9.95;3.13;;;11.70;99.90;;;;;;5004817;28;20224;-63
2022/10/07 08:13:41;;;;;;;7.30;2.58;;;12.00;99.90;;;;;;5022077;28;20202;-62
2022/10/07 08:16:08;;;;;;;12.45;2.92;;;11.80;99.90;;;;;;4985237;28;20217;-62
2022/10/07 08:18:37;;;;;;;9.85;2.97;;;11.80;99.90;;;;;;5022071;28;20223;-62
2022/10/07 08:21:06;;;;;;;7.65;2.88;;;11.80;99.90;;;;;;5013054;28;20205;-63
2022/10/07 08:23:35;;;;;;;10.15;2.85;;;12.00;99.90;;;;;;5015098;28;20205;-63
2022/10/07 08:26:03;;;;;;;7.93;2.70;;;11.90;99.90;;;;;;5002251;28;20707;-63
2022/10/07 08:28:30;;;;;;;9.95;2.75;;;12.00;99.90;;;;;;5022852;28;20201;-62
2022/10/07 08:31:03;;;;;;;9.88;2.88;;;12.30;99.90;;;;;;5013756;28;20209;-63
2022/10/07 08:33:34;;;;;;;12.38;3.10;;;12.10;99.90;;;;;;4999644;28;20983;-62
2022/10/07 08:36:03;;;;;;;15.18;3.03;;;11.90;99.90;;;;;;5027810;28;20263;-62
2022/10/07 08:38:30;;;;;;;10.63;2.78;;;12.10;99.90;;;;;;5004613;28;20213;-62
2022/10/07 08:41:10;;;;;;;9.27;2.92;;;12.30;99.90;;;;;;5019352;28;20225;-62
2022/10/07 08:43:40;;;;;;;7.28;2.95;;;12.20;99.90;;;;;;4998041;28;20603;-62
2022/10/07 08:46:12;;;;;;;10.65;3.08;;;12.20;99.90;;;;;;5017886;28;20228;-62
2022/10/07 08:48:42;;;;;;;12.35;3.15;;;12.30;99.90;;;;;;4997633;28;20564;-62
2022/10/07 08:51:18;;;;;;;9.85;2.67;;;12.40;99.90;;;;;;5022882;28;20225;-62
2022/10/07 08:53:49;;;;;;;13.88;3.75;;;12.30;99.90;;;;;;5014038;28;20983;-63
2022/10/07 08:56:20;;;;;;;12.38;2.25;;;12.40;99.90;;;;;;5024272;28;20217;-62
2022/10/07 08:58:58;;;;;;;6.20;2.55;;;12.40;99.90;;;;;;5001123;28;20209;-62
2022/10/07 09:01:38;;;;;;;9.45;2.50;;;12.60;99.90;;;;;;5033167;28;20212;-62
2022/10/07 09:04:15;;;;;;;19.70;3.03;;;14.20;99.90;;;;;;4997457;28;20963;-62
2022/10/07 09:06:50;;;;;;;9.90;2.65;;;12.60;99.90;;;;;;5030223;28;20785;-62
2022/10/07 09:09:24;;;;;;;7.57;2.20;;;12.80;99.90;;;;;;5021514;28;20502;-63
2022/10/07 09:11:54;;;;;;;6.97;2.28;;;12.90;99.90;;;;;;4995858;28;20226;-63
2022/10/07 09:14:28;;;;;;;11.15;2.72;;;12.90;99.90;;;;;;5022848;28;20249;-62
2022/10/07 09:17:00;;;;;;;13.27;2.60;;;12.90;99.90;;;;;;5005608;28;20202;-63
2022/10/07 09:19:31;;;;;;;7.05;2.60;;;13.00;99.90;;;;;;4986636;28;20256;-63
2022/10/07 09:22:04;;;;;;;11.60;2.13;;;12.80;99.90;;;;;;5010457;28;20217;-62
2022/10/07 09:24:34;;;;;;;7.40;2.10;;;13.10;99.90;;;;;;5014875;28;20222;-63
2022/10/07 09:27:08;;;;;;;8.88;1.95;;;13.90;99.90;;;;;;5006379;28;20968;-63
2022/10/07 09:29:36;;;;;;;8.10;2.15;;;13.20;99.90;;;;;;5025942;28;20786;-63
2022/10/07 09:32:03;;;;;;;5.20;1.73;;;13.20;99.90;;;;;;5007672;28;20247;-63
2022/10/07 09:34:31;;;;;;;10.63;2.20;;;13.30;99.90;;;;;;4991489;28;20221;-63
2022/10/07 09:37:13;;;;;;;12.13;3.08;;;13.60;99.90;;;;;;5025271;28;20213;-62
2022/10/07 09:39:41;;;;;;;12.18;2.33;;;13.30;99.90;;;;;;5029711;28;20225;-63
2022/10/07 09:42:16;;;;;;;11.68;2.00;;;13.40;99.90;;;;;;5007489;28;20193;-63
2022/10/07 09:44:50;;;;;;;8.65;2.53;;;13.40;99.90;;;;;;5005536;28;20201;-62
2022/10/07 09:47:22;;;;;;;8.52;2.22;;;13.40;99.90;;;;;;5016916;28;20431;-63
2022/10/07 09:49:51;;;;;;;13.18;2.10;;;13.50;99.90;;;;;;4995000;28;20225;-63
2022/10/07 09:52:22;;;;;;;10.85;2.50;;;13.50;99.90;;;;;;5004142;28;21031;-63
2022/10/07 09:54:50;;;;;;;8.30;1.83;;;;;;;;;;5026221;28;20194;-63
2022/10/07 09:57:34;;;;;;;7.13;2.20;;;13.60;99.90;;;;;;4997013;28;20212;-62
2022/10/07 10:00:23;;;;;;;8.98;2.22;;;13.80;99.90;;;;;;4996547;28;20225;-63
2022/10/07 10:02:53;;;;;;;4.68;2.00;;;13.70;99.90;;;;;;5013381;28;20202;-63
2022/10/07 10:05:23;;;;;;;7.57;2.30;;;13.70;99.90;;;;;;5013065;28;20205;-63
2022/10/07 10:07:55;;;;;;;6.63;2.08;;;13.80;99.90;;;;;;4991994;28;20209;-62
2022/10/07 10:10:26;;;;;;;4.10;1.75;;;13.90;99.90;;;;;;5022806;28;20199;-62
2022/10/07 10:12:56;;;;;;;5.97;2.13;;;14.00;99.90;;;;;;5011220;28;20197;-63
2022/10/07 10:15:27;;;;;;;9.05;2.08;;;14.00;99.90;;;;;;5001967;28;20749;-63
2022/10/07 10:17:55;;;;;;;10.70;2.50;;;14.00;99.90;;;;;;5015788;28;20293;-62
2022/10/07 10:20:31;;;;;;;5.97;1.80;;;14.00;99.90;;;;;;5007270;28;20284;-62
2022/10/07 10:23:00;;;;;;;9.45;1.83;;;14.10;99.90;;;;;;4993362;28;20205;-63
2022/10/07 10:28:42;;;;;;;12.25;2.42;;;14.20;99.90;;;;;;5017453;28;20232;-63
2022/10/07 10:31:19;;;;;;;7.75;2.47;;;14.40;99.90;;;;;;5003974;28;20202;-63
2022/10/07 10:33:53;;;;;;;8.60;1.98;;;14.30;99.90;;;;;;5007986;28;20237;-63
2022/10/07 10:36:25;;;;;;;9.02;2.10;;;14.30;99.90;;;;;;5014888;28;20202;-64
2022/10/07 10:39:00;;;;;;;3.88;1.40;;;14.40;99.90;;;;;;4997140;28;20639;-63
2022/10/07 10:41:34;;;;;;;8.30;1.95;;;14.40;99.90;;;;;;5020535;28;20790;-63
2022/10/07 10:44:22;;;;;;;9.25;1.88;;;14.50;99.90;;;;;;5004170;28;20200;-64
2022/10/07 10:46:57;;;;;;;11.82;2.10;;;14.50;99.90;;;;;;5030630;28;20288;-63
2022/10/07 10:49:29;;;;;;;9.55;2.42;;;14.50;99.90;;;;;;5025247;28;20231;-63
2022/10/07 10:52:17;;;;;;;9.88;2.17;;;16.30;99.90;;;;;;4992989;28;20240;-63
2022/10/07 10:55:00;;;;;;;12.02;2.90;;;14.60;99.90;;;;;;5033361;28;20201;-63
2022/10/07 10:57:40;;;;;;;6.63;1.80;;;14.60;99.90;;;;;;5023295;28;20211;-62
2022/10/07 11:00:14;;;;;;;10.40;2.22;;;14.90;99.90;;;;;;4960869;28;20225;-63
2022/10/07 11:03:11;;;;;;;7.35;2.00;;;14.70;99.90;;;;;;4999097;28;20705;-63
2022/10/07 11:05:41;;;;;;;7.95;2.20;;;14.80;99.90;;;;;;5007584;28;20706;-63
2022/10/07 11:08:11;;;;;;;6.95;1.77;;;14.60;99.90;;;;;;4978960;28;20250;-64
2022/10/07 11:10:44;;;;;;;8.95;2.00;;;15.00;99.90;;;;;;5020870;28;20304;-63
2022/10/07 11:13:23;;;;;;;12.52;2.28;;;14.70;99.90;;;;;;5005513;28;20225;-63
2022/10/07 11:15:56;;;;;;;7.90;2.05;;;14.90;99.90;;;;;;4990909;28;20742;-64
2022/10/07 11:18:31;;;;;;;7.00;2.17;;;16.60;99.90;;;;;;5020832;28;20227;-63
2022/10/07 11:21:00;;;;;;;6.68;1.80;;;15.00;99.90;;;;;;5013509;28;20241;-63
2022/10/07 11:23:35;;;;;;;7.90;1.92;;;15.00;99.90;;;;;;4988631;28;20216;-63
2022/10/07 11:26:11;;;;;;;7.22;1.85;;;15.00;99.90;;;;;;5007014;28;20233;-63
2022/10/07 11:28:41;;;;;;;5.00;1.65;;;15.10;99.90;;;;;;5015150;28;20348;-62
2022/10/07 11:31:14;;;;;;;8.43;1.60;;;15.10;99.90;;;;;;4992254;28;20208;-63
2022/10/07 11:33:48;;;;;;;14.73;2.35;;;15.00;99.90;;;;;;5005838;28;20304;-63
2022/10/07 11:36:20;;;;;;;8.98;2.42;;;15.10;99.90;;;;;;5020854;28;20292;-63
2022/10/07 11:38:48;;;;;;;3.17;1.48;;;15.20;99.90;;;;;;5188520;23;20229;-63
2022/10/07 11:41:21;;;;;;;9.38;2.33;;;15.20;99.90;;;;;;5011954;28;20357;-63
2022/10/07 11:43:52;;;;;;;4.85;1.73;;;15.30;99.90;;;;;;5021588;28;20213;-62
2022/10/07 11:46:24;;;;;;;10.75;2.75;;;15.40;99.90;;;;;;5015233;28;21459;-63
2022/10/07 11:48:57;;;;;;;10.70;2.42;;;15.30;99.90;;;;;;5044507;28;20262;-62
2022/10/07 11:51:28;;;;;;;9.80;1.77;;;15.30;99.90;;;;;;5032252;28;24207;-63
2022/10/07 11:54:00;;;;;;;10.15;1.73;;;15.40;99.90;;;;;;5007760;28;20215;-63
2022/10/07 11:56:36;;;;;;;9.65;2.00;;;15.50;99.90;;;;;;5041059;28;20306;-63
2022/10/07 11:59:06;;;;;;;7.55;1.83;;;15.50;99.90;;;;;;5041214;28;20219;-65
2022/10/07 12:01:52;;;;;;;6.25;2.08;;;15.80;99.90;;;;;;4995893;28;21226;-63
2022/10/07 12:04:37;;;;;;;5.90;1.55;;;15.60;99.90;;;;;;5022260;28;20211;-63
2022/10/07 12:07:39;;;;;;;5.28;1.58;;;15.60;99.90;;;;;;5033999;28;20595;-63
2022/10/07 12:10:23;;;;;;;8.02;1.60;;;15.60;99.90;;;;;;5003608;28;20305;-63
2022/10/07 12:12:53;;;;;;;5.55;2.38;;;15.70;99.90;;;;;;5032634;28;20323;-63
2022/10/07 12:19:21;;;;;;;9.50;2.10;;;16.10;99.90;;;;;;5099060;27;20547;-62
2022/10/07 12:22:14;;;;;;;8.75;2.08;;;15.60;99.90;;;;;;5111376;27;20214;-61
2022/10/07 12:24:44;;;;;;;10.07;1.98;;;14.40;99.90;;;;;;5094714;27;20222;-62
2022/10/07 12:27:15;;;;;;;10.75;1.80;;;15.60;99.90;;;;;;5050956;27;20217;-61
2022/10/07 12:29:57;;;;;;;9.82;2.20;;;15.70;99.90;;;;;;5069113;27;20390;-62
2022/10/07 12:32:44;;;;;;;10.40;1.83;;;15.70;99.90;;;;;;5064297;27;20925;-61
2022/10/07 12:35:49;;;;;;;5.00;2.03;;;15.70;99.90;;;;;;5089897;27;20217;-62
2022/10/07 12:38:29;;;;;;;13.93;1.83;;;15.80;99.90;;;;;;5093020;27;20821;-62
2022/10/07 12:41:18;;;;;;;11.18;2.35;;;15.80;99.90;;;;;;5071181;27;20222;-62
2022/10/07 12:43:50;;;;;;;10.27;1.83;;;15.90;99.90;;;;;;5093819;27;20233;-62
2022/10/07 12:46:19;;;;;;;7.45;2.38;;;15.90;99.90;;;;;;5087026;27;20206;-63
2022/10/07 12:48:54;;;;;;;13.23;1.95;;;15.90;99.90;;;;;;5071579;27;20229;-62
2022/10/07 13:10:00;;;;;;;6.60;1.73;;;15.90;99.90;;;;;;5008485;28;20825;-61
2022/10/07 13:12:37;;;;;;;5.93;1.90;;;15.90;99.90;;;;;;4986624;28;20697;-61
2022/10/07 13:15:16;;;;;;;6.95;1.73;;;16.00;99.90;;;;;;4991745;28;20236;-61
2022/10/07 13:17:49;;;;;;;5.13;1.67;;;15.60;99.90;;;;;;5009698;28;20316;-62
2022/10/07 13:20:28;;;;;;;5.93;2.00;;;15.80;99.90;;;;;;5001153;28;20224;-63
2022/10/07 13:22:56;;;;;;;3.40;2.00;;;15.70;99.90;;;;;;5040134;28;20657;-62
2022/10/07 13:25:24;;;;;;;7.57;1.67;;;15.70;99.90;;;;;;5023317;28;20224;-62
2022/10/07 13:27:54;;;;;;;7.25;2.08;;;15.60;99.90;;;;;;5001384;28;20732;-61
2022/10/07 13:30:40;;;;;;;7.00;1.83;;;15.60;99.90;;;;;;5010592;28;20787;-62
2022/10/07 13:33:18;;;;;;;7.82;2.30;;;15.60;99.90;;;;;;4997885;28;20589;-61
2022/10/07 13:35:45;;;;;;;7.85;1.75;;;15.70;99.90;;;;;;5022051;28;20541;-62
2022/10/07 13:38:21;;;;;;;6.75;1.98;;;15.70;99.90;;;;;;5017255;28;20201;-62
2022/10/07 13:41:02;;;;;;;11.18;2.58;;;15.70;99.90;;;;;;5029145;28;20753;-61